Time;durP1;ratioP1;P1;durP2;ratioP2;P2;SDS_P1;SDS_P2;PMS_P1;PMS_P2;Temp;Humidity;BMP_temperature;BMP_pressure;BME280_temperature;BME280_humidity;BME280_pressure;Samples;Min_cycle;Max_cycle;Signal;HPM_P1;HPM_P2
2023/10/13 00:00:57;;;;;;;24.88;7.15;;;;;;;-145.67;100.00;66521.78;5056540;28;20029;-92
2023/10/13 00:03:22;;;;;;;23.48;6.30;;;;;;;-145.67;100.00;66521.78;5025416;28;20065;-90
2023/10/13 00:05:52;;;;;;;26.77;6.88;;;;;;;-145.67;100.00;66521.78;5041094;28;20221;-94
2023/10/13 00:08:20;;;;;;;23.10;6.80;;;;;;;-145.67;100.00;66521.78;5041189;28;20034;-93
2023/10/13 00:10:47;;;;;;;27.67;7.22;;;;;;;-145.67;100.00;66521.78;5055933;28;20059;-92
2023/10/13 00:13:15;;;;;;;23.33;6.75;;;;;;;-145.67;100.00;66521.78;5021468;28;20033;-93
2023/10/13 00:15:57;;;;;;;26.02;7.05;;;;;;;-145.67;100.00;66521.78;5040137;28;20044;-92
2023/10/13 00:18:26;;;;;;;23.55;6.28;;;;;;;-145.67;100.00;66521.78;5058775;28;20024;-92
2023/10/13 00:20:56;;;;;;;24.08;6.88;;;;;;;-145.67;100.00;66521.78;5040553;28;20018;-92
2023/10/13 00:23:23;;;;;;;25.23;7.03;;;;;;;-145.67;100.00;66521.78;5024586;28;20029;-93
2023/10/13 00:25:56;;;;;;;24.75;7.03;;;;;;;-145.67;100.00;66521.78;5038812;28;20081;-92
2023/10/13 00:28:26;;;;;;;29.88;7.75;;;;;;;-145.67;100.00;66521.78;5041488;28;20033;-93
2023/10/13 00:30:59;;;;;;;24.65;7.10;;;;;;;-145.67;100.00;66521.78;5040863;28;20010;-93
2023/10/13 00:33:25;;;;;;;18.05;6.72;;;;;;;-145.67;100.00;66521.78;5023750;28;20025;-92
2023/10/13 00:35:58;;;;;;;23.92;7.07;;;;;;;-145.67;100.00;66521.78;5038972;28;20048;-92
2023/10/13 00:38:24;;;;;;;26.35;6.82;;;;;;;-145.67;100.00;66521.78;5039003;28;20033;-92
2023/10/13 00:40:53;;;;;;;23.65;7.97;;;;;;;-145.67;100.00;66521.78;5023138;28;20013;-92
2023/10/13 00:45:55;;;;;;;22.85;7.43;;;;;;;-145.67;100.00;66521.78;5038874;28;20045;-93
2023/10/13 00:48:52;;;;;;;26.08;7.60;;;;;;;-145.67;100.00;66521.78;5038689;28;20021;-92
2023/10/13 00:51:32;;;;;;;27.90;7.60;;;;;;;-145.67;100.00;66521.78;5044765;28;20090;-93
2023/10/13 00:54:00;;;;;;;36.08;8.65;;;;;;;-145.67;100.00;66521.78;5052725;28;20147;-91
2023/10/13 00:56:27;;;;;;;32.92;8.48;;;;;;;-145.67;100.00;66521.78;5070556;28;20033;-92
2023/10/13 00:58:57;;;;;;;35.92;8.50;;;;;;;-145.67;100.00;66521.78;5053873;28;20085;-92
2023/10/13 01:01:28;;;;;;;26.05;8.48;;;;;;;-145.67;100.00;66521.78;5054676;28;20018;-92
2023/10/13 01:03:59;;;;;;;21.35;7.15;;;;;;;-145.67;100.00;66521.78;5051655;28;20025;-91
2023/10/13 01:06:26;;;;;;;24.10;7.15;;;;;;;-145.67;100.00;66521.78;5042661;28;20040;-93
2023/10/13 01:09:13;;;;;;;18.02;6.45;;;;;;;-145.67;100.00;66521.78;5040912;28;20018;-91
2023/10/13 01:11:44;;;;;;;23.95;7.35;;;;;;;-145.67;100.00;66521.78;5058117;28;20033;-92
2023/10/13 01:14:12;;;;;;;24.63;6.93;;;;;;;-145.67;100.00;66521.78;5050044;28;20031;-93
2023/10/13 01:16:43;;;;;;;20.88;6.47;;;;;;;-145.67;100.00;66521.78;5054958;28;20047;-92
2023/10/13 01:19:19;;;;;;;;;;;;;;;-145.67;100.00;66521.78;5038711;28;20025;-91
2023/10/13 01:21:47;;;;;;;20.20;6.45;;;;;;;-145.67;100.00;66521.78;5054082;28;19909;-92
2023/10/13 01:24:13;;;;;;;26.17;6.65;;;;;;;-145.67;100.00;66521.78;5072200;28;20005;-91
2023/10/13 01:26:40;;;;;;;19.42;5.63;;;;;;;-145.67;100.00;66521.78;5068798;28;20037;-92
2023/10/13 01:29:13;;;;;;;19.60;6.05;;;;;;;-145.67;100.00;66521.78;5050907;28;20014;-91
2023/10/13 01:31:46;;;;;;;30.20;6.60;;;;;;;-145.67;100.00;66521.78;5056093;28;20029;-92
2023/10/13 01:34:24;;;;;;;23.60;6.30;;;;;;;-145.67;100.00;66521.78;5056180;28;20033;-91
2023/10/13 01:36:55;;;;;;;28.75;6.50;;;;;;;-145.67;100.00;66521.78;5055632;28;20041;-92
2023/10/13 01:39:22;;;;;;;;;;;;;;;-145.67;100.00;66521.78;5038426;28;20056;-92
2023/10/13 01:41:55;;;;;;;23.52;5.90;;;;;;;-145.67;100.00;66521.78;5047949;28;19909;-91
2023/10/13 01:44:23;;;;;;;28.02;6.30;;;;;;;-145.67;100.00;66521.78;5028903;28;20036;-91
2023/10/13 01:46:51;;;;;;;28.15;5.05;;;;;;;-145.67;100.00;66521.78;5031687;28;20057;-90
2023/10/13 01:49:16;;;;;;;28.98;5.05;;;;;;;-145.67;100.00;66521.78;5052933;28;20053;-90
2023/10/13 01:51:42;;;;;;;30.98;4.85;;;;;;;-145.67;100.00;66521.78;5062879;28;20026;-90
2023/10/13 01:54:12;;;;;;;26.63;4.60;;;;;;;-145.67;100.00;66521.78;5039328;28;20030;-91
2023/10/13 01:56:43;;;;;;;41.33;5.38;;;;;;;-145.67;100.00;66521.78;5023063;28;20037;-90
2023/10/13 01:59:12;;;;;;;;;;;;;;;-145.67;100.00;66521.78;5030596;28;20088;-91
2023/10/13 02:01:39;;;;;;;23.48;4.05;;;;;;;-145.67;100.00;66521.78;5044178;28;19959;-91
2023/10/13 02:04:06;;;;;;;27.77;4.93;;;;;;;-145.67;100.00;66521.78;5029518;28;20029;-91
2023/10/13 02:06:34;;;;;;;28.02;4.53;;;;;;;-145.67;100.00;66521.78;5049464;28;20049;-91
2023/10/13 02:09:43;;;;;;;27.95;4.75;;;;;;;-145.67;100.00;66521.78;5058544;28;20021;-92
2023/10/13 02:11:54;;;;;;;30.70;5.55;;;;;;;-145.67;100.00;66521.78;5051650;28;20029;-90
2023/10/13 02:14:22;;;;;;;30.98;5.07;;;;;;;-145.67;100.00;66521.78;5057631;28;20017;-92
2023/10/13 02:16:50;;;;;;;31.85;5.55;;;;;;;-145.67;100.00;66521.78;5055528;28;20017;-91
2023/10/13 02:19:19;;;;;;;41.13;5.70;;;;;;;-145.67;100.00;66521.78;5040772;28;20082;-90
2023/10/13 02:21:45;;;;;;;31.27;6.53;;;;;;;-145.67;100.00;66521.78;5041596;28;20025;-92
2023/10/13 02:24:18;;;;;;;28.92;5.40;;;;;;;-145.67;100.00;66521.78;5059250;28;20029;-91
2023/10/13 02:26:44;;;;;;;35.20;5.30;;;;;;;-145.67;100.00;66521.78;5060521;28;20032;-92
2023/10/13 02:29:17;;;;;;;33.92;5.30;;;;;;;-145.67;100.00;66521.78;5059629;28;20021;-91
2023/10/13 02:31:54;;;;;;;27.13;4.63;;;;;;;-145.67;100.00;66521.78;5043847;28;20043;-89
2023/10/13 02:34:19;;;;;;;21.52;4.40;;;;;;;-145.67;100.00;66521.78;5061500;28;20032;-90
2023/10/13 02:37:03;;;;;;;24.05;4.63;;;;;;;-145.67;100.00;66521.78;5060287;28;20036;-90
2023/10/13 02:39:36;;;;;;;26.85;4.80;;;;;;;-145.67;100.00;66521.78;5062951;28;20025;-90
2023/10/13 02:42:06;;;;;;;23.05;4.65;;;;;;;-145.67;100.00;66521.78;5060368;28;20025;-91
2023/10/13 02:44:36;;;;;;;23.50;4.93;;;;;;;-145.67;100.00;66521.78;5044053;28;20021;-91
2023/10/13 02:47:13;;;;;;;27.85;5.15;;;;;;;-145.67;100.00;66521.78;5058593;28;20028;-90
2023/10/13 02:49:43;;;;;;;27.58;4.78;;;;;;;-145.67;100.00;66521.78;5076509;28;20024;-90
2023/10/13 02:52:12;;;;;;;26.90;4.93;;;;;;;-145.67;100.00;66521.78;5042934;28;20041;-90
2023/10/13 02:54:47;;;;;;;25.30;4.90;;;;;;;-145.67;100.00;66521.78;5043885;28;20036;-91
2023/10/13 02:57:15;;;;;;;28.90;7.07;;;;;;;-145.67;100.00;66521.78;5045008;28;20059;-91
2023/10/13 02:59:46;;;;;;;24.40;6.53;;;;;;;-145.67;100.00;66521.78;5044957;28;20074;-91
2023/10/13 03:02:29;;;;;;;30.38;10.95;;;;;;;-145.67;100.00;66521.78;5079990;28;20084;-92
2023/10/13 03:04:59;;;;;;;33.25;12.57;;;;;;;-145.67;100.00;66521.78;5050154;28;20467;-93
2023/10/13 03:07:28;;;;;;;27.08;14.10;;;;;;;-145.67;100.00;66521.78;5067845;28;20009;-94
2023/10/13 03:09:57;;;;;;;32.35;13.65;;;;;;;-145.67;100.00;66521.78;5032626;28;20021;-92
2023/10/13 03:12:24;;;;;;;33.83;14.35;;;;;;;-145.67;100.00;66521.78;5071378;28;20039;-92
2023/10/13 03:15:11;;;;;;;40.15;16.15;;;;;;;-145.67;100.00;66521.78;5063249;28;20021;-91
2023/10/13 03:17:37;;;;;;;51.53;38.65;;;;;;;-145.67;100.00;66521.78;5049329;28;20017;-92
2023/10/13 03:20:06;;;;;;;45.20;26.67;;;;;;;-145.67;100.00;66521.78;5046625;28;20040;-91
2023/10/13 03:22:33;;;;;;;43.22;24.95;;;;;;;-145.67;100.00;66521.78;5044544;28;20035;-93
2023/10/13 03:25:06;;;;;;;39.50;27.92;;;;;;;-145.67;100.00;66521.78;5061820;28;20036;-92
2023/10/13 03:30:35;;;;;;;22.20;14.68;;;;;;;-145.67;100.00;66521.78;5040882;28;20042;-92
2023/10/13 03:33:09;;;;;;;24.67;16.38;;;;;;;-145.67;100.00;66521.78;5036878;28;20069;-92
2023/10/13 03:35:43;;;;;;;24.13;15.52;;;;;;;-145.67;100.00;66521.78;5053590;28;20034;-91
2023/10/13 03:38:27;;;;;;;28.10;17.17;;;;;;;-145.67;100.00;66521.78;5043983;28;20017;-92
2023/10/13 03:41:18;;;;;;;25.35;14.15;;;;;;;-145.67;100.00;66521.78;5007950;28;20554;-92
2023/10/13 03:44:17;;;;;;;30.60;16.17;;;;;;;-145.67;100.00;66521.78;5033127;28;20031;-92
2023/10/13 03:46:47;;;;;;;29.15;16.52;;;;;;;-145.67;100.00;66521.78;5014183;28;20044;-92
2023/10/13 03:49:21;;;;;;;25.33;16.88;;;;;;;-145.67;100.00;66521.78;5043032;28;20018;-91
2023/10/13 03:51:57;;;;;;;28.63;20.15;;;;;;;-145.67;100.00;66521.78;5016982;28;20056;-91
2023/10/13 03:54:34;;;;;;;41.00;21.90;;;;;;;-145.67;100.00;66521.78;5009815;28;20029;-94
2023/10/13 03:57:10;;;;;;;36.60;23.15;;;;;;;-145.67;100.00;66521.78;5006189;28;20021;-95
2023/10/13 03:59:37;;;;;;;26.75;19.95;;;;;;;-145.67;100.00;66521.78;5038357;28;20021;-94
2023/10/13 04:02:11;;;;;;;24.90;16.88;;;;;;;-145.67;100.00;66521.78;5004284;28;20056;-92
2023/10/13 04:04:53;;;;;;;23.60;15.95;;;;;;;-145.67;100.00;66521.78;5019031;28;20029;-92
2023/10/13 04:08:44;;;;;;;25.65;17.55;;;;;;;-145.67;100.00;66521.78;5018885;28;20480;-92
2023/10/13 04:11:49;;;;;;;31.48;19.55;;;;;;;-145.67;100.00;66521.78;5032765;28;20064;-90
2023/10/13 04:16:02;;;;;;;52.55;30.27;;;;;;;-145.67;100.00;66521.78;5035848;28;20387;-92
2023/10/13 04:18:46;;;;;;;55.80;29.38;;;;;;;-145.67;100.00;66521.78;5035214;28;20525;-91
2023/10/13 04:21:36;;;;;;;43.05;24.52;;;;;;;-145.67;100.00;66521.78;5018116;28;20029;-92
2023/10/13 04:24:23;;;;;;;28.30;18.23;;;;;;;-145.67;100.00;66521.78;5034532;28;20031;-93
2023/10/13 04:29:48;;;;;;;31.73;18.40;;;;;;;-145.67;100.00;66521.78;5035686;28;20032;-92
2023/10/13 04:32:28;;;;;;;41.05;22.77;;;;;;;-145.67;100.00;66521.78;5005251;28;20029;-92
2023/10/13 04:37:54;;;;;;;19.17;13.85;;;;;;;-145.67;100.00;66521.78;5037742;28;20025;-93
2023/10/13 04:40:24;;;;;;;20.35;15.10;;;;;;;-145.67;100.00;66521.78;5035634;28;20036;-93
2023/10/13 04:42:53;;;;;;;16.98;12.60;;;;;;;-145.67;100.00;66521.78;5035270;28;20029;-92
2023/10/13 04:55:32;;;;;;;25.50;17.67;;;;;;;-145.67;100.00;66521.78;4968651;28;20038;-92
2023/10/13 04:58:11;;;;;;;14.98;11.55;;;;;;;-145.67;100.00;66521.78;5005234;28;20032;-92
2023/10/13 05:03:52;;;;;;;19.58;7.32;;;;;;;-145.67;100.00;66521.78;5034186;28;20108;-92
2023/10/13 09:08:44;;;;;;;42.20;10.60;;;;;;;-145.67;100.00;66521.78;5031621;28;20048;-90
2023/10/13 09:11:13;;;;;;;38.42;10.73;;;;;;;-145.67;100.00;66521.78;5002104;28;20041;-90
2023/10/13 09:13:45;;;;;;;36.33;9.77;;;;;;;-145.67;100.00;66521.78;5017226;28;20030;-92
2023/10/13 09:17:07;;;;;;;;;;;;;;;-145.67;100.00;66521.78;5035590;28;20379;-91
2023/10/13 09:19:04;;;;;;;23.73;8.27;;;;;;;-145.67;100.00;66521.78;5005986;28;19920;-90
2023/10/13 09:24:21;;;;;;;27.98;8.02;;;;;;;-145.67;100.00;66521.78;5034903;28;20040;-92
2023/10/13 09:26:53;;;;;;;24.08;8.60;;;;;;;-145.67;100.00;66521.78;5019478;28;20036;-90
2023/10/13 09:29:19;;;;;;;20.23;7.47;;;;;;;-145.67;100.00;66521.78;5017530;28;20029;-90
2023/10/13 09:31:48;;;;;;;25.98;7.40;;;;;;;-145.67;100.00;66521.78;5033294;28;20037;-91
2023/10/13 09:34:23;;;;;;;23.38;6.95;;;;;;;-145.67;100.00;66521.78;5017439;28;20032;-91
2023/10/13 09:36:55;;;;;;;22.52;7.28;;;;;;;-145.67;100.00;66521.78;5032848;28;20059;-91
2023/10/13 09:39:34;;;;;;;;;;;;;;;-145.67;100.00;66521.78;5017582;28;20101;-91
2023/10/13 09:42:00;;;;;;;22.30;6.25;;;;;;;-145.67;100.00;66521.78;5034043;28;19913;-92
2023/10/13 09:44:40;;;;;;;27.13;8.25;;;;;;;-145.67;100.00;66521.78;5033009;28;20068;-92
2023/10/13 09:47:16;;;;;;;25.75;7.30;;;;;;;-145.67;100.00;66521.78;5033457;28;20029;-90
2023/10/13 09:49:49;;;;;;;24.02;7.75;;;;;;;-145.67;100.00;66521.78;5034047;28;20029;-92
2023/10/13 09:52:19;;;;;;;33.50;7.95;;;;;;;-145.67;100.00;66521.78;5033356;28;20025;-91
2023/10/13 09:54:59;;;;;;;23.02;6.15;;;;;;;-145.67;100.00;66521.78;5033549;28;20045;-91
2023/10/13 09:57:44;;;;;;;19.70;6.38;;;;;;;-145.67;100.00;66521.78;5020927;28;20040;-90
2023/10/13 10:03:19;;;;;;;19.15;5.13;;;;;;;-145.67;100.00;66521.78;5037307;28;20029;-90
2023/10/13 10:06:13;;;;;;;21.10;6.80;;;;;;;-145.67;100.00;66521.78;5022392;28;20049;-90
2023/10/13 10:08:48;;;;;;;24.38;6.43;;;;;;;-145.67;100.00;66521.78;5017089;28;20119;-90
2023/10/13 10:11:25;;;;;;;16.95;6.60;;;;;;;-145.67;100.00;66521.78;5024853;28;20174;-91
2023/10/13 10:14:05;;;;;;;24.70;6.57;;;;;;;-145.67;100.00;66521.78;5040161;28;20036;-91
2023/10/13 10:17:08;;;;;;;22.58;6.30;;;;;;;-145.67;100.00;66521.78;5040747;28;20467;-91
2023/10/13 10:19:53;;;;;;;21.35;6.13;;;;;;;-145.67;100.00;66521.78;5036818;28;20080;-91
2023/10/13 10:22:36;;;;;;;22.88;6.40;;;;;;;-145.67;100.00;66521.78;5042510;28;20036;-92
2023/10/13 10:25:25;;;;;;;20.83;6.68;;;;;;;-145.67;100.00;66521.78;5025663;28;20074;-90
2023/10/13 10:28:07;;;;;;;21.42;6.40;;;;;;;-145.67;100.00;66521.78;5026715;28;20029;-90
2023/10/13 10:30:41;;;;;;;22.58;7.50;;;;;;;-145.67;100.00;66521.78;5024733;28;20029;-90
2023/10/13 10:33:15;;;;;;;24.35;7.72;;;;;;;-145.67;100.00;66521.78;5036158;28;20029;-90
2023/10/13 10:35:51;;;;;;;23.70;7.35;;;;;;;-145.67;100.00;66521.78;5029611;28;20041;-90
2023/10/13 10:38:24;;;;;;;27.77;7.70;;;;;;;-145.67;100.00;66521.78;5041992;28;20090;-90
2023/10/13 10:40:57;;;;;;;19.95;6.88;;;;;;;-145.67;100.00;66521.78;5024829;28;20028;-92
2023/10/13 10:43:29;;;;;;;26.15;7.25;;;;;;;-145.67;100.00;66521.78;5023580;28;20162;-91
2023/10/13 10:46:01;;;;;;;25.65;7.15;;;;;;;-145.67;100.00;66521.78;5040223;28;20025;-89
2023/10/13 10:48:31;;;;;;;18.25;6.75;;;;;;;-145.67;100.00;66521.78;5040907;28;20037;-90
2023/10/13 10:50:58;;;;;;;19.90;7.15;;;;;;;-145.67;100.00;66521.78;5040352;28;20021;-91
2023/10/13 10:53:33;;;;;;;24.35;6.55;;;;;;;-145.67;100.00;66521.78;5056448;28;20431;-90
2023/10/13 10:56:24;;;;;;;24.25;5.95;;;;;;;-145.67;100.00;66521.78;5016646;28;20029;-90
2023/10/13 10:58:57;;;;;;;26.40;6.40;;;;;;;-145.67;100.00;66521.78;5034003;28;20017;-91
2023/10/13 11:01:24;;;;;;;24.80;5.28;;;;;;;-145.67;100.00;66521.78;5033132;28;20033;-91
2023/10/13 11:03:57;;;;;;;20.42;6.63;;;;;;;-145.67;100.00;66521.78;5013123;28;20033;-91
2023/10/13 11:06:26;;;;;;;21.85;6.35;;;;;;;-145.67;100.00;66521.78;5018392;28;20017;-89
2023/10/13 11:09:03;;;;;;;22.83;6.20;;;;;;;-145.67;100.00;66521.78;5049635;28;20225;-90
2023/10/13 11:11:35;;;;;;;24.15;6.90;;;;;;;-145.67;100.00;66521.78;5035760;28;20051;-91
2023/10/13 11:14:13;;;;;;;20.08;6.70;;;;;;;-145.67;100.00;66521.78;5046889;28;20021;-90
2023/10/13 11:16:59;;;;;;;20.90;6.95;;;;;;;-145.67;100.00;66521.78;5059142;28;20036;-90
2023/10/13 11:19:41;;;;;;;28.02;6.95;;;;;;;-145.67;100.00;66521.78;5052364;28;20021;-90
2023/10/13 11:22:31;;;;;;;22.67;6.85;;;;;;;-145.67;100.00;66521.78;5035931;28;20028;-89
2023/10/13 11:25:03;;;;;;;26.80;7.18;;;;;;;-145.67;100.00;66521.78;5038638;28;20116;-91
2023/10/13 11:30:14;;;;;;;25.00;7.68;;;;;;;-145.67;100.00;66521.78;5069906;28;20021;-90
2023/10/13 11:32:43;;;;;;;26.55;7.22;;;;;;;-145.67;100.00;66521.78;5033090;28;20020;-92
2023/10/13 11:35:20;;;;;;;23.52;7.13;;;;;;;-145.67;100.00;66521.78;5023247;28;20033;-91
2023/10/13 11:37:56;;;;;;;19.13;6.10;;;;;;;-145.67;100.00;66521.78;5051070;28;20020;-91
2023/10/13 11:43:13;;;;;;;37.22;8.77;;;;;;;-145.67;100.00;66521.78;5049880;28;20466;-91
2023/10/13 11:45:53;;;;;;;33.20;9.15;;;;;;;-145.67;100.00;66521.78;5050932;28;20467;-90
2023/10/13 11:48:34;;;;;;;35.83;9.10;;;;;;;-145.67;100.00;66521.78;5044665;28;20095;-91
2023/10/13 11:51:00;;;;;;;41.28;9.95;;;;;;;-145.67;100.00;66521.78;5054599;28;20036;-89
2023/10/13 11:53:28;;;;;;;38.35;9.95;;;;;;;-145.67;100.00;66521.78;5054648;28;20021;-88
2023/10/13 11:55:55;;;;;;;37.17;8.82;;;;;;;-145.67;100.00;66521.78;5037570;28;20103;-90
2023/10/13 11:58:21;;;;;;;40.45;9.73;;;;;;;-145.67;100.00;66521.78;5035926;28;20028;-91
2023/10/13 12:04:32;;;;;;;34.05;9.75;;;;;;;-145.67;100.00;66521.78;5023044;28;20041;-91
2023/10/13 12:06:22;;;;;;;40.55;9.98;;;;;;;-145.67;100.00;66521.78;5037933;28;20041;-91
2023/10/13 12:08:52;;;;;;;36.55;10.07;;;;;;;-145.67;100.00;66521.78;5008363;28;20029;-92
2023/10/13 12:11:38;;;;;;;36.50;9.70;;;;;;;-145.67;100.00;66521.78;5026581;28;20025;-91
2023/10/13 12:14:21;;;;;;;41.65;11.35;;;;;;;-145.67;100.00;66521.78;5023930;28;20061;-90
2023/10/13 12:16:51;;;;;;;41.75;10.43;;;;;;;-145.67;100.00;66521.78;5015359;28;20117;-92
2023/10/13 12:19:17;;;;;;;37.05;10.60;;;;;;;-145.67;100.00;66521.78;5026818;28;20035;-94
2023/10/13 12:21:43;;;;;;;41.75;11.13;;;;;;;-145.67;100.00;66521.78;5025112;28;20527;-90
2023/10/13 12:24:21;;;;;;;42.45;10.75;;;;;;;-145.67;100.00;66521.78;5028972;28;20032;-90
2023/10/13 12:26:47;;;;;;;50.67;11.82;;;;;;;-145.67;100.00;66521.78;5064593;28;20047;-91
2023/10/13 12:29:22;;;;;;;53.72;12.55;;;;;;;-145.67;100.00;66521.78;5045000;28;20391;-91
2023/10/13 12:32:05;;;;;;;42.45;11.40;;;;;;;-145.67;100.00;66521.78;5047826;28;20027;-92
2023/10/13 12:34:57;;;;;;;48.78;12.35;;;;;;;-145.67;100.00;66521.78;5037559;28;20086;-91
2023/10/13 12:51:19;;;;;;;57.75;14.30;;;;;;;-145.67;100.00;66521.78;5042672;28;20035;-92
2023/10/13 12:53:49;;;;;;;52.20;12.73;;;;;;;-145.67;100.00;66521.78;5041477;28;20037;-91
2023/10/13 23:42:26;;;;;;;19.73;3.53;;;;;;;-145.67;100.00;66521.78;5291001;22;20087;-91
2023/10/13 23:44:54;;;;;;;16.75;3.00;;;;;;;-145.67;100.00;66521.78;5041551;28;20058;-92
2023/10/13 23:47:27;;;;;;;17.67;3.75;;;;;;;-145.67;100.00;66521.78;5058716;28;20066;-94
2023/10/13 23:49:53;;;;;;;22.25;3.92;;;;;;;-145.67;100.00;66521.78;5043605;28;20028;-92
2023/10/13 23:52:20;;;;;;;26.80;4.40;;;;;;;-145.67;100.00;66521.78;5077207;28;20368;-91
2023/10/13 23:54:54;;;;;;;25.63;4.55;;;;;;;-145.67;100.00;66521.78;5059432;28;20031;-92
2023/10/13 23:57:23;;;;;;;21.50;3.53;;;;;;;-145.67;100.00;66521.78;5059591;28;20021;-94
2023/10/13 23:59:55;;;;;;;21.63;3.58;;;;;;;-145.67;100.00;66521.78;5059370;28;20031;-93
